Time;durP1;ratioP1;P1;durP2;ratioP2;P2;SDS_P1;SDS_P2;PMS_P1;PMS_P2;Temp;Humidity;BMP_temperature;BMP_pressure;BME280_temperature;BME280_humidity;BME280_pressure;Samples;Min_cycle;Max_cycle;Signal;HPM_P1;HPM_P2
2024/01/08 00:00:30;;;;;;;26.07;19.87;;;;;19.90;101675.00;;;;2084904;28;20209;-53
2024/01/08 00:01:30;;;;;;;24.80;18.57;;;;;19.90;101675.00;;;;2074280;28;20206;-53
2024/01/08 00:02:30;;;;;;;25.20;18.60;;;;;19.90;101681.00;;;;2069565;28;20226;-53
2024/01/08 00:03:31;;;;;;;23.97;18.00;;;;;19.80;101678.00;;;;2079180;28;20334;-52
2024/01/08 00:04:31;;;;;;;22.43;16.60;;;;;19.80;101672.00;;;;2078192;28;20206;-53
2024/01/08 00:05:31;;;;;;;22.23;17.70;;;;;19.80;101678.00;;;;2072432;28;20221;-52
2024/01/08 00:06:32;;;;;;;24.57;18.27;;;;;19.80;101664.00;;;;2078429;28;20210;-53
2024/01/08 00:07:32;;;;;;;24.30;18.63;;;;;19.80;101671.00;;;;2073877;28;20244;-54
2024/01/08 00:08:33;;;;;;;22.77;17.17;;;;;19.80;101670.00;;;;2073865;28;20238;-53
2024/01/08 00:09:33;;;;;;;25.80;17.80;;;;;19.80;101682.00;;;;2074681;28;20214;-53
2024/01/08 00:10:34;;;;;;;23.13;17.63;;;;;19.80;101677.00;;;;2067795;28;20206;-52
2024/01/08 00:11:34;;;;;;;20.77;16.10;;;;;19.80;101681.00;;;;2073777;28;20222;-53
2024/01/08 00:12:34;;;;;;;24.87;17.87;;;;;19.80;101688.00;;;;2075092;28;20255;-53
2024/01/08 00:13:35;;;;;;;22.77;16.37;;;;;19.80;101684.00;;;;2072894;28;20277;-53
2024/01/08 00:14:35;;;;;;;23.13;16.03;;;;;19.80;101682.00;;;;2083293;28;20224;-53
2024/01/08 00:15:35;;;;;;;21.03;16.10;;;;;19.80;101728.00;;;;2076049;28;20929;-52
2024/01/08 00:16:36;;;;;;;23.53;16.70;;;;;19.80;101679.00;;;;2079861;28;20546;-52
2024/01/08 00:17:36;;;;;;;20.30;15.53;;;;;19.80;101675.00;;;;2071957;28;20223;-53
2024/01/08 00:18:36;;;;;;;21.20;15.93;;;;;19.80;101683.00;;;;2075658;28;20209;-53
2024/01/08 00:19:37;;;;;;;22.43;16.40;;;;;19.70;101684.00;;;;2080588;28;20244;-53
2024/01/08 00:20:37;;;;;;;21.63;16.00;;;;;19.80;101676.00;;;;2073208;28;20216;-53
2024/01/08 00:21:37;;;;;;;18.07;14.33;;;;;19.70;101688.00;;;;2079576;28;20201;-54
2024/01/08 00:22:38;;;;;;;20.37;16.30;;;;;19.70;101734.00;;;;2067760;28;20249;-53
2024/01/08 00:23:38;;;;;;;20.80;16.00;;;;;19.70;101688.00;;;;2072516;28;21063;-52
2024/01/08 00:24:38;;;;;;;20.93;16.33;;;;;19.70;101686.00;;;;2073075;28;20694;-53
2024/01/08 00:25:39;;;;;;;21.70;15.17;;;;;19.70;101686.00;;;;2080648;28;20689;-53
2024/01/08 00:26:39;;;;;;;20.03;14.43;;;;;19.70;101679.00;;;;2083031;28;20217;-53
2024/01/08 00:27:39;;;;;;;20.23;14.47;;;;;19.70;101681.00;;;;2067634;28;20259;-53
2024/01/08 00:28:40;;;;;;;19.93;14.30;;;;;19.60;101682.00;;;;2086259;28;20216;-53
2024/01/08 00:29:40;;;;;;;17.30;13.93;;;;;19.70;101672.00;;;;2077523;28;20229;-53
2024/01/08 00:30:40;;;;;;;20.53;14.93;;;;;19.70;101680.00;;;;2076447;28;20577;-53
2024/01/08 00:31:41;;;;;;;19.93;14.43;;;;;19.70;101672.00;;;;2077978;28;20226;-53
2024/01/08 00:32:41;;;;;;;20.20;15.20;;;;;19.60;101676.00;;;;2067027;28;20213;-52
2024/01/08 00:33:41;;;;;;;18.43;13.27;;;;;19.60;101662.00;;;;2085836;28;20277;-53
2024/01/08 00:34:42;;;;;;;20.87;14.00;;;;;19.60;101671.00;;;;2077501;28;20360;-53
2024/01/08 00:35:42;;;;;;;16.27;13.10;;;;;19.60;101672.00;;;;2081476;28;20216;-53
2024/01/08 00:36:42;;;;;;;19.33;13.90;;;;;19.60;101667.00;;;;2076495;28;20292;-53
2024/01/08 00:37:43;;;;;;;21.10;14.50;;;;;19.70;101678.00;;;;2066871;28;20248;-53
2024/01/08 00:38:43;;;;;;;15.20;12.23;;;;;19.60;101669.00;;;;2080098;28;20222;-53
2024/01/08 00:39:43;;;;;;;17.60;13.87;;;;;19.60;101672.00;;;;2077781;28;20694;-53
2024/01/08 00:40:44;;;;;;;15.83;12.67;;;;;19.60;101676.00;;;;2081567;28;20638;-53
2024/01/08 00:41:44;;;;;;;18.67;12.63;;;;;19.60;101665.00;;;;2074991;28;20605;-53
2024/01/08 00:42:44;;;;;;;17.90;12.70;;;;;19.60;101677.00;;;;2072504;28;20949;-53
2024/01/08 00:43:45;;;;;;;17.90;12.63;;;;;19.60;101682.00;;;;2073939;28;20724;-52
2024/01/08 00:44:45;;;;;;;18.67;12.37;;;;;19.60;101674.00;;;;2068339;28;20226;-53
2024/01/08 00:45:45;;;;;;;17.00;11.60;;;;;19.50;101674.00;;;;2069216;28;20252;-53
2024/01/08 00:46:46;;;;;;;16.47;12.17;;;;;19.50;101671.00;;;;2066757;28;20282;-53
2024/01/08 00:47:46;;;;;;;16.40;13.10;;;;;19.50;101678.00;;;;2078402;28;20216;-53
2024/01/08 00:48:46;;;;;;;16.03;12.20;;;;;19.50;101681.00;;;;2085409;28;20329;-53
2024/01/08 00:49:47;;;;;;;15.30;11.60;;;;;19.50;101674.00;;;;2088278;28;20230;-52
2024/01/08 00:50:48;;;;;;;17.80;12.70;;;;;19.50;101679.00;;;;2086720;28;20221;-53
2024/01/08 00:51:48;;;;;;;15.67;11.77;;;;;19.50;101682.00;;;;2084402;28;20326;-53
2024/01/08 00:52:48;;;;;;;14.43;11.07;;;;;19.50;101687.00;;;;2078077;28;20529;-53
2024/01/08 00:53:49;;;;;;;17.93;11.83;;;;;19.50;101684.00;;;;2089607;28;20224;-53
2024/01/08 00:54:49;;;;;;;15.83;11.00;;;;;19.50;101687.00;;;;2086106;28;20224;-52
2024/01/08 00:55:49;;;;;;;15.83;11.00;;;;;19.50;101687.00;;;;2090258;28;20220;-53
2024/01/08 00:56:50;;;;;;;16.87;11.27;;;;;19.50;101684.00;;;;2090026;28;20212;-52
2024/01/08 00:57:50;;;;;;;15.70;11.20;;;;;19.40;101683.00;;;;2077794;28;20679;-52
2024/01/08 00:58:50;;;;;;;17.67;12.07;;;;;19.50;101682.00;;;;2089810;28;20221;-53
2024/01/08 00:59:51;;;;;;;14.10;10.70;;;;;19.50;101685.00;;;;2085586;28;20273;-53
2024/01/08 01:00:51;;;;;;;14.07;10.57;;;;;19.50;101687.00;;;;2081136;28;20228;-53
2024/01/08 01:01:51;;;;;;;13.87;10.23;;;;;19.50;101684.00;;;;2084023;28;20312;-53
2024/01/08 01:02:52;;;;;;;15.70;10.80;;;;;19.50;101606.00;;;;2072952;28;20684;-54
2024/01/08 01:03:52;;;;;;;13.23;9.90;;;;;19.50;101679.00;;;;2085140;28;20235;-52
2024/01/08 01:04:52;;;;;;;13.87;10.70;;;;;19.50;101679.00;;;;2081189;28;21136;-53
2024/01/08 01:05:53;;;;;;;11.27;9.10;;;;;19.50;101682.00;;;;2081179;28;20691;-58
2024/01/08 01:06:53;;;;;;;13.70;9.87;;;;;19.50;101686.00;;;;2083016;28;20286;-53
2024/01/08 01:07:53;;;;;;;14.93;10.50;;;;;19.50;101677.00;;;;2066266;28;20225;-54
2024/01/08 01:08:54;;;;;;;14.40;9.60;;;;;19.50;101684.00;;;;2085709;28;20223;-56
2024/01/08 01:09:54;;;;;;;13.37;9.90;;;;;19.50;101679.00;;;;2070544;28;20241;-55
2024/01/08 01:10:54;;;;;;;11.40;9.07;;;;;19.40;101679.00;;;;2073866;28;20233;-53
2024/01/08 01:11:56;;;;;;;11.37;9.10;;;;;19.40;101682.00;;;;2075071;28;20229;-53
2024/01/08 01:12:56;;;;;;;12.57;9.73;;;;;19.40;101682.00;;;;2072934;28;20672;-52
2024/01/08 01:13:57;;;;;;;13.87;9.67;;;;;19.40;101688.00;;;;2078532;28;20240;-52
2024/01/08 01:14:57;;;;;;;12.50;9.83;;;;;19.40;101682.00;;;;2082344;28;20312;-52
2024/01/08 01:15:57;;;;;;;13.10;10.10;;;;;19.40;101688.00;;;;2075804;28;20221;-54
2024/01/08 01:16:58;;;;;;;13.43;9.53;;;;;19.40;101695.00;;;;2079953;28;20220;-54
2024/01/08 01:18:00;;;;;;;15.07;8.68;;;;;19.50;101685.00;;;;2065570;28;20221;-53
2024/01/08 01:19:00;;;;;;;12.40;8.38;;;;;19.50;101694.00;;;;2067809;28;20276;-56
2024/01/08 01:20:00;;;;;;;11.17;8.40;;;;;19.50;101688.00;;;;2074927;28;20686;-54
2024/01/08 01:21:01;;;;;;;10.80;8.60;;;;;18.80;101707.00;;;;2078508;28;20228;-54
2024/01/08 01:22:02;;;;;;;10.67;8.33;;;;;19.40;101700.00;;;;2067388;28;20264;-56
2024/01/08 01:23:02;;;;;;;12.33;8.60;;;;;19.50;101705.00;;;;2076348;28;20237;-53
2024/01/08 01:24:04;;;;;;;14.50;8.63;;;;;19.50;101685.00;;;;2071413;28;20352;-54
2024/01/08 01:25:05;;;;;;;12.27;9.52;;;;;19.50;101696.00;;;;2082486;28;20221;-54
2024/01/08 01:26:05;;;;;;;10.90;7.90;;;;;19.50;101700.00;;;;2073774;28;20306;-54
2024/01/08 01:27:05;;;;;;;9.93;7.73;;;;;19.40;101699.00;;;;2062104;28;20218;-53
2024/01/08 01:28:06;;;;;;;12.13;8.37;;;;;19.40;101700.00;;;;2074175;28;20233;-53
2024/01/08 01:29:06;;;;;;;11.73;7.73;;;;;19.40;101700.00;;;;2075365;28;20256;-53
2024/01/08 01:30:07;;;;;;;10.53;7.40;;;;;19.40;101700.00;;;;2084870;28;20223;-53
2024/01/08 01:31:10;;;;;;;11.93;7.90;;;;;19.40;101705.00;;;;2075630;28;20222;-54
2024/01/08 01:32:10;;;;;;;16.02;7.28;;;;;19.40;101707.00;;;;2073575;28;20240;-54
2024/01/08 01:33:10;;;;;;;11.40;7.90;;;;;19.40;101702.00;;;;2073459;28;20214;-54
2024/01/08 01:34:11;;;;;;;14.67;8.00;;;;;19.40;101705.00;;;;2068841;28;20713;-52
2024/01/08 01:35:12;;;;;;;10.90;7.75;;;;;19.40;101699.00;;;;2076431;28;20224;-51
2024/01/08 01:36:12;;;;;;;9.90;7.63;;;;;19.40;101696.00;;;;2084635;28;20213;-51
2024/01/08 01:37:12;;;;;;;13.07;8.23;;;;;19.40;101712.00;;;;2071287;28;20297;-52
2024/01/08 01:38:13;;;;;;;10.70;7.27;;;;;19.40;101714.00;;;;2070891;28;20785;-52
2024/01/08 01:39:13;;;;;;;12.17;7.10;;;;;19.40;101711.00;;;;2077564;28;20905;-53
2024/01/08 01:40:14;;;;;;;10.23;7.50;;;;;19.40;101710.00;;;;2079310;28;20296;-53
2024/01/08 01:41:14;;;;;;;9.67;7.47;;;;;19.40;101708.00;;;;2077038;28;20287;-52
2024/01/08 01:42:15;;;;;;;10.03;7.40;;;;;19.40;101717.00;;;;2067942;28;20224;-51
2024/01/08 01:43:26;;;;;;;8.43;6.38;;;;;19.40;101714.00;;;;2084862;28;20217;-53
2024/01/08 01:44:26;;;;;;;9.75;7.47;;;;;19.40;101713.00;;;;2069002;28;21098;-57
2024/01/08 01:45:26;;;;;;;10.07;7.40;;;;;19.40;101716.00;;;;2082135;28;20213;-55
2024/01/08 01:46:27;;;;;;;9.57;6.80;;;;;19.40;101697.00;;;;2070431;28;20297;-57
2024/01/08 01:47:27;;;;;;;8.83;6.50;;;;;19.40;101708.00;;;;2063399;28;20226;-53
2024/01/08 01:48:28;;;;;;;8.90;6.33;;;;;19.40;101703.00;;;;2086407;28;20211;-53
2024/01/08 01:49:28;;;;;;;9.50;7.03;;;;;19.40;101713.00;;;;2078409;28;20218;-51
2024/01/08 01:50:29;;;;;;;8.87;6.97;;;;;19.40;101700.00;;;;2083800;28;20232;-51
2024/01/08 01:51:29;;;;;;;9.97;6.87;;;;;19.40;101715.00;;;;2074972;28;20266;-51
2024/01/08 01:52:30;;;;;;;9.00;6.90;;;;;19.40;101700.00;;;;2059829;28;20238;-50
2024/01/08 01:53:30;;;;;;;10.37;6.73;;;;;19.40;101712.00;;;;2085768;28;20212;-52
2024/01/08 01:54:30;;;;;;;8.47;6.40;;;;;19.40;101723.00;;;;2069777;28;20213;-53
2024/01/08 01:55:31;;;;;;;9.90;6.10;;;;;19.40;101688.00;;;;2070238;28;20206;-53
2024/01/08 01:56:31;;;;;;;9.90;5.80;;;;;19.40;101687.00;;;;2066769;28;20310;-51
2024/01/08 01:57:31;;;;;;;9.10;5.97;;;;;19.40;101687.00;;;;2076470;28;20221;-51
2024/01/08 01:58:31;;;;;;;8.60;6.40;;;;;19.40;101716.00;;;;2074988;28;20209;-52
2024/01/08 01:59:32;;;;;;;9.20;6.20;;;;;19.40;101707.00;;;;2071473;28;20206;-53
2024/01/08 02:00:32;;;;;;;8.50;6.17;;;;;19.40;101721.00;;;;2079729;28;20220;-53
2024/01/08 02:01:36;;;;;;;7.13;5.80;;;;;19.40;101725.00;;;;2075691;28;20213;-53
2024/01/08 02:02:37;;;;;;;7.85;6.32;;;;;19.40;101711.00;;;;2063944;28;20309;-52
2024/01/08 02:03:37;;;;;;;8.67;5.77;;;;;19.40;101714.00;;;;2080468;28;20220;-53
2024/01/08 02:04:37;;;;;;;7.93;5.90;;;;;19.40;101690.00;;;;2088224;28;20225;-51
2024/01/08 02:05:38;;;;;;;7.93;5.80;;;;;19.40;101711.00;;;;2084856;28;20215;-52
2024/01/08 02:06:38;;;;;;;7.80;5.83;;;;;19.30;101691.00;;;;2073563;28;20217;-53
2024/01/08 02:07:39;;;;;;;8.60;5.63;;;;;19.40;101714.00;;;;2066662;28;20303;-53
2024/01/08 02:08:39;;;;;;;7.80;5.70;;;;;19.40;101703.00;;;;2075328;28;20297;-53
2024/01/08 02:09:39;;;;;;;9.73;6.50;;;;;19.30;101707.00;;;;2092725;28;20612;-51
2024/01/08 02:10:40;;;;;;;8.47;5.60;;;;;19.30;101716.00;;;;2082175;28;20205;-51
2024/01/08 02:11:40;;;;;;;6.37;5.07;;;;;19.30;101711.00;;;;2074566;28;20256;-52
2024/01/08 02:12:40;;;;;;;8.07;6.17;;;;;19.30;101711.00;;;;2069000;28;20606;-52
2024/01/08 02:13:41;;;;;;;8.20;5.50;;;;;19.30;101719.00;;;;2069737;28;20778;-53
2024/01/08 02:14:41;;;;;;;6.60;5.03;;;;;19.30;101711.00;;;;2082886;28;20590;-53
2024/01/08 02:15:41;;;;;;;6.63;4.73;;;;;19.30;101702.00;;;;2085072;28;20573;-53
2024/01/08 02:16:42;;;;;;;6.80;5.30;;;;;19.30;101714.00;;;;2093297;28;20204;-53
2024/01/08 02:17:42;;;;;;;8.50;5.27;;;;;19.30;101709.00;;;;2080260;28;20369;-52
2024/01/08 02:18:42;;;;;;;6.80;5.40;;;;;19.30;101710.00;;;;2079087;28;20217;-52
2024/01/08 02:19:43;;;;;;;5.63;4.50;;;;;19.30;101717.00;;;;2077634;28;20202;-52
2024/01/08 02:20:43;;;;;;;8.30;5.40;;;;;19.30;101701.00;;;;2080214;28;20244;-53
2024/01/08 02:21:43;;;;;;;6.40;4.20;;;;;19.30;101715.00;;;;2075112;28;20312;-53
2024/01/08 02:22:44;;;;;;;6.80;5.00;;;;;19.30;101705.00;;;;2062743;28;20228;-53
2024/01/08 02:23:44;;;;;;;7.63;4.77;;;;;19.30;101703.00;;;;2084413;28;20213;-50
2024/01/08 02:24:44;;;;;;;6.83;4.40;;;;;19.30;101730.00;;;;2083968;28;20220;-51
2024/01/08 02:25:45;;;;;;;6.00;4.50;;;;;19.30;101700.00;;;;2080656;28;20213;-52
2024/01/08 02:26:45;;;;;;;6.23;4.67;;;;;19.30;101706.00;;;;2086149;28;20232;-52
2024/01/08 02:27:45;;;;;;;5.27;4.00;;;;;19.30;101704.00;;;;2072355;28;20252;-52
2024/01/08 02:28:46;;;;;;;6.97;4.80;;;;;19.30;101708.00;;;;2081961;28;20347;-52
2024/01/08 02:29:46;;;;;;;7.57;4.60;;;;;19.30;101713.00;;;;2074758;28;20206;-52
2024/01/08 02:30:46;;;;;;;6.80;4.80;;;;;19.30;101706.00;;;;2082708;28;20307;-52
2024/01/08 02:31:47;;;;;;;5.87;4.37;;;;;19.20;101700.00;;;;2089552;28;20208;-51
2024/01/08 02:32:48;;;;;;;6.27;4.73;;;;;19.20;101702.00;;;;2067706;28;20218;-52
2024/01/08 02:33:48;;;;;;;7.37;4.93;;;;;19.20;101708.00;;;;2079434;28;20201;-52
2024/01/08 02:34:48;;;;;;;6.80;4.40;;;;;19.20;101704.00;;;;2068974;28;20210;-53
2024/01/08 02:35:49;;;;;;;5.17;3.70;;;;;19.20;101706.00;;;;2071691;28;20260;-53
2024/01/08 02:36:49;;;;;;;5.70;4.00;;;;;19.20;101702.00;;;;2075182;28;20287;-50
2024/01/08 02:37:49;;;;;;;8.27;4.80;;;;;19.20;101703.00;;;;2069075;28;20214;-52
2024/01/08 02:38:49;;;;;;;6.00;4.43;;;;;19.20;101698.00;;;;2074609;28;20225;-52
2024/01/08 02:39:50;;;;;;;5.73;4.10;;;;;19.20;101705.00;;;;2073978;28;20247;-53
2024/01/08 02:40:50;;;;;;;6.50;3.67;;;;;19.20;101710.00;;;;2080625;28;20207;-52
2024/01/08 02:41:50;;;;;;;6.80;4.27;;;;;19.20;101710.00;;;;2074925;28;20231;-52
2024/01/08 02:42:51;;;;;;;5.40;3.90;;;;;19.20;101521.00;;;;2069047;28;20225;-52
2024/01/08 02:43:51;;;;;;;5.03;3.67;;;;;19.20;101770.00;;;;2072403;28;20280;-52
2024/01/08 02:44:51;;;;;;;4.50;3.47;;;;;19.20;101705.00;;;;2081005;28;20622;-51
2024/01/08 02:45:52;;;;;;;4.90;3.90;;;;;19.20;101710.00;;;;2082198;28;20273;-51
2024/01/08 02:46:52;;;;;;;5.73;4.03;;;;;19.20;101710.00;;;;2075917;28;20209;-52
2024/01/08 02:47:52;;;;;;;5.83;3.93;;;;;19.20;101709.00;;;;2070791;28;20206;-53
2024/01/08 02:48:53;;;;;;;6.87;3.87;;;;;19.20;101712.00;;;;2073732;28;20212;-53
2024/01/08 02:49:53;;;;;;;5.57;4.10;;;;;19.20;101716.00;;;;2081541;28;20267;-53
2024/01/08 02:50:53;;;;;;;6.43;4.33;;;;;19.20;101718.00;;;;2076495;28;20578;-53
2024/01/08 02:51:54;;;;;;;5.03;3.40;;;;;19.10;101706.00;;;;2075347;28;20700;-50
2024/01/08 02:52:54;;;;;;;4.30;3.37;;;;;19.10;101704.00;;;;2069982;28;20682;-52
2024/01/08 02:53:54;;;;;;;4.60;3.40;;;;;19.10;101715.00;;;;2071325;28;20225;-53
2024/01/08 02:54:55;;;;;;;5.50;3.90;;;;;19.10;101709.00;;;;2081847;28;20224;-53
2024/01/08 02:55:55;;;;;;;6.00;3.60;;;;;19.10;101714.00;;;;2078299;28;21167;-52
2024/01/08 02:56:55;;;;;;;5.30;3.73;;;;;19.10;101703.00;;;;2086780;28;20911;-52
2024/01/08 02:57:56;;;;;;;4.70;3.37;;;;;19.10;101719.00;;;;2069665;28;20229;-51
2024/01/08 02:58:56;;;;;;;4.50;3.70;;;;;19.10;101719.00;;;;2075016;28;20226;-51
2024/01/08 02:59:56;;;;;;;5.37;3.73;;;;;19.10;101719.00;;;;2072543;28;20231;-50
2024/01/08 03:00:59;;;;;;;4.50;3.10;;;;;19.10;101720.00;;;;2082053;28;20225;-52
2024/01/08 03:01:59;;;;;;;4.47;3.67;;;;;19.10;101711.00;;;;2084209;28;20295;-52
2024/01/08 03:03:00;;;;;;;4.43;3.50;;;;;19.10;101721.00;;;;2057977;28;20225;-53
2024/01/08 03:04:00;;;;;;;3.90;3.10;;;;;19.10;101719.00;;;;2069743;28;20690;-53
2024/01/08 03:05:00;;;;;;;4.53;3.30;;;;;19.10;101724.00;;;;2073332;28;20217;-51
2024/01/08 03:06:01;;;;;;;7.17;3.47;;;;;19.10;101719.00;;;;2082403;28;20788;-52
2024/01/08 03:07:02;;;;;;;5.07;3.30;;;;;19.10;101717.00;;;;2081541;28;20704;-52
2024/01/08 03:08:03;;;;;;;4.35;3.17;;;;;19.10;101723.00;;;;2078827;28;20216;-53
2024/01/08 03:09:03;;;;;;;4.97;3.40;;;;;19.10;101720.00;;;;2086366;28;20223;-52
2024/01/08 03:10:03;;;;;;;4.70;3.33;;;;;19.00;101721.00;;;;2086731;28;20212;-52
2024/01/08 03:11:04;;;;;;;3.97;2.80;;;;;19.00;101714.00;;;;2092168;28;20227;-51
2024/01/08 03:12:04;;;;;;;5.17;3.87;;;;;19.00;101716.00;;;;2074871;28;20225;-53
2024/01/08 03:13:05;;;;;;;4.10;3.30;;;;;19.00;101717.00;;;;2082709;28;20579;-53
2024/01/08 03:14:05;;;;;;;4.97;3.43;;;;;19.00;101721.00;;;;2085526;28;20221;-50
2024/01/08 03:15:06;;;;;;;4.40;3.27;;;;;19.00;101724.00;;;;2094550;28;20227;-52
2024/01/08 03:16:06;;;;;;;5.20;3.23;;;;;19.00;101721.00;;;;2093092;28;20247;-53
2024/01/08 03:17:07;;;;;;;4.33;3.43;;;;;19.00;101721.00;;;;2066870;28;20461;-56
2024/01/08 03:18:07;;;;;;;4.17;3.17;;;;;19.00;101721.00;;;;2078380;28;20210;-53
2024/01/08 03:19:07;;;;;;;5.13;3.07;;;;;19.10;101716.00;;;;2076277;28;20231;-50
2024/01/08 03:20:08;;;;;;;4.70;3.40;;;;;19.00;101714.00;;;;2081258;28;20714;-53
2024/01/08 03:21:09;;;;;;;3.80;2.90;;;;;19.00;101718.00;;;;2085720;28;20744;-53
2024/01/08 03:22:09;;;;;;;5.43;2.90;;;;;19.00;101725.00;;;;2068644;28;20470;-52
2024/01/08 03:23:09;;;;;;;3.87;2.80;;;;;19.00;101716.00;;;;2081492;28;20206;-53
2024/01/08 03:24:09;;;;;;;4.30;3.03;;;;;19.00;101719.00;;;;2075628;28;20220;-50
2024/01/08 03:25:10;;;;;;;3.93;3.20;;;;;19.00;101718.00;;;;2078173;28;20214;-51
2024/01/08 03:26:10;;;;;;;4.20;3.10;;;;;19.00;101716.00;;;;2074486;28;20309;-52
2024/01/08 03:27:10;;;;;;;4.37;2.70;;;;;18.90;101732.00;;;;2065398;28;20214;-53
2024/01/08 03:28:11;;;;;;;3.30;2.63;;;;;19.00;101718.00;;;;2074980;28;20930;-53
2024/01/08 03:29:11;;;;;;;3.73;2.80;;;;;19.00;101723.00;;;;2074788;28;20214;-53
2024/01/08 03:30:12;;;;;;;4.10;2.97;;;;;19.00;101723.00;;;;2077103;28;20703;-53
2024/01/08 03:31:12;;;;;;;3.77;2.70;;;;;19.00;101721.00;;;;2074324;28;20217;-53
2024/01/08 03:32:12;;;;;;;4.60;2.43;;;;;19.00;101717.00;;;;2067379;28;20233;-52
2024/01/08 03:33:13;;;;;;;3.90;2.87;;;;;19.00;101719.00;;;;2073013;28;20218;-53
2024/01/08 03:34:14;;;;;;;3.17;2.53;;;;;18.90;101720.00;;;;2075219;28;20266;-52
2024/01/08 03:35:17;;;;;;;3.80;2.90;;;;;19.00;101731.00;;;;2085025;28;20215;-51
2024/01/08 03:36:17;;;;;;;3.47;2.35;;;;;19.00;101713.00;;;;2083291;28;20505;-52
2024/01/08 03:37:18;;;;;;;7.20;2.60;;;;;19.00;101720.00;;;;2082231;28;20212;-52
2024/01/08 03:38:18;;;;;;;5.37;3.27;;;;;19.00;101713.00;;;;2089260;28;20226;-52
2024/01/08 03:39:18;;;;;;;3.33;2.30;;;;;19.00;101721.00;;;;2088421;28;20213;-52
2024/01/08 03:40:19;;;;;;;3.60;2.47;;;;;19.00;101716.00;;;;2081197;28;20224;-53
2024/01/08 03:41:19;;;;;;;3.43;2.50;;;;;18.90;101723.00;;;;2084228;28;20236;-52
2024/01/08 03:42:19;;;;;;;4.67;3.23;;;;;18.90;101715.00;;;;2078390;28;20216;-53
2024/01/08 03:43:20;;;;;;;4.33;2.70;;;;;18.90;101725.00;;;;2082979;28;20267;-52
2024/01/08 03:44:20;;;;;;;3.47;3.03;;;;;18.90;101721.00;;;;2086157;28;20212;-51
2024/01/08 03:45:21;;;;;;;3.67;2.77;;;;;18.90;101726.00;;;;2078345;28;20241;-53
2024/01/08 03:46:21;;;;;;;3.53;2.70;;;;;18.90;101721.00;;;;2084127;28;20201;-52
2024/01/08 03:47:21;;;;;;;4.10;2.60;;;;;18.90;101723.00;;;;2073292;28;20695;-53
2024/01/08 03:48:22;;;;;;;3.70;2.67;;;;;18.90;101726.00;;;;2081638;28;20732;-53
2024/01/08 03:49:22;;;;;;;4.10;2.50;;;;;18.90;101727.00;;;;2083680;28;20696;-52
2024/01/08 03:50:22;;;;;;;3.87;2.60;;;;;18.90;101725.00;;;;2090734;28;20600;-52
2024/01/08 03:51:23;;;;;;;3.40;2.70;;;;;18.90;101405.00;;;;2094259;28;20710;-52
2024/01/08 03:52:23;;;;;;;3.47;2.20;;;;;18.90;101707.00;;;;2068825;28;20237;-53
2024/01/08 03:53:24;;;;;;;3.60;2.50;;;;;18.90;101714.00;;;;2081903;28;20705;-51
2024/01/08 03:54:24;;;;;;;3.60;2.77;;;;;18.90;101723.00;;;;2081265;28;20217;-52
2024/01/08 03:55:24;;;;;;;3.43;2.53;;;;;18.90;101710.00;;;;2091022;28;20825;-52
2024/01/08 03:56:25;;;;;;;3.60;2.70;;;;;18.90;101721.00;;;;2085649;28;20791;-53
2024/01/08 03:57:25;;;;;;;3.37;2.27;;;;;18.90;101720.00;;;;2084362;28;20587;-53
2024/01/08 03:58:25;;;;;;;4.30;2.73;;;;;18.90;101805.00;;;;2094113;28;20643;-53
2024/01/08 03:59:26;;;;;;;4.17;2.40;;;;;18.90;101721.00;;;;2084033;28;20830;-53
2024/01/08 04:00:26;;;;;;;3.77;2.40;;;;;18.90;101724.00;;;;2091310;28;20219;-53
2024/01/08 04:01:27;;;;;;;3.40;2.47;;;;;18.90;101720.00;;;;2086045;28;20214;-52
2024/01/08 04:02:27;;;;;;;3.60;2.60;;;;;18.90;101726.00;;;;2080390;28;20236;-52
2024/01/08 04:03:27;;;;;;;4.60;2.70;;;;;18.80;101724.00;;;;2083777;28;20258;-53
2024/01/08 04:04:28;;;;;;;3.90;2.53;;;;;18.90;101729.00;;;;2085630;28;20249;-52
2024/01/08 04:05:28;;;;;;;3.40;2.27;;;;;18.90;101717.00;;;;2082947;28;20229;-53
2024/01/08 04:06:28;;;;;;;3.43;2.20;;;;;18.90;101730.00;;;;2077766;28;20210;-53
2024/01/08 04:07:29;;;;;;;4.27;2.50;;;;;18.80;101727.00;;;;2085231;28;20255;-52
2024/01/08 04:08:29;;;;;;;4.03;2.23;;;;;18.80;101722.00;;;;2089775;28;20216;-52
2024/01/08 04:09:29;;;;;;;3.00;2.17;;;;;18.80;101734.00;;;;2098121;28;20263;-52
2024/01/08 04:10:30;;;;;;;3.33;2.47;;;;;18.80;101726.00;;;;2087279;28;20213;-52
2024/01/08 04:11:30;;;;;;;2.73;2.13;;;;;18.80;101729.00;;;;2076833;28;20216;-53
2024/01/08 04:12:30;;;;;;;3.10;2.00;;;;;18.80;101724.00;;;;2082544;28;20224;-53
2024/01/08 04:13:31;;;;;;;3.60;2.40;;;;;18.80;101722.00;;;;2072189;28;20225;-53
2024/01/08 04:14:31;;;;;;;3.70;2.33;;;;;18.80;101736.00;;;;2079270;28;20224;-52
2024/01/08 04:15:31;;;;;;;3.60;2.53;;;;;18.80;101725.00;;;;2084117;28;20224;-51
2024/01/08 04:16:32;;;;;;;2.43;1.87;;;;;18.80;101721.00;;;;2081536;28;20220;-52
2024/01/08 04:17:32;;;;;;;3.00;2.13;;;;;18.80;101728.00;;;;2073669;28;20271;-51
2024/01/08 04:18:33;;;;;;;3.33;2.20;;;;;18.80;101728.00;;;;2077899;28;20217;-54
2024/01/08 04:19:33;;;;;;;4.50;2.47;;;;;18.80;101726.00;;;;2091961;28;20221;-53
2024/01/08 04:20:33;;;;;;;3.50;2.27;;;;;18.80;101722.00;;;;2088105;28;20982;-52
2024/01/08 04:21:34;;;;;;;3.50;2.30;;;;;18.80;101727.00;;;;2085715;28;21038;-52
2024/01/08 04:22:34;;;;;;;3.43;2.20;;;;;18.80;101719.00;;;;2082207;28;20618;-52
2024/01/08 04:23:34;;;;;;;2.77;2.07;;;;;18.80;101720.00;;;;2085513;28;20575;-51
2024/01/08 04:24:35;;;;;;;2.87;2.03;;;;;18.80;101726.00;;;;2093368;28;20728;-52
2024/01/08 04:25:35;;;;;;;3.83;2.30;;;;;18.80;101718.00;;;;2080938;28;20695;-54
2024/01/08 04:26:35;;;;;;;3.37;2.13;;;;;18.80;101719.00;;;;2093075;28;20223;-53
2024/01/08 04:27:36;;;;;;;3.30;2.27;;;;;18.80;101721.00;;;;2072923;28;20245;-53
2024/01/08 04:28:36;;;;;;;2.50;2.17;;;;;18.80;101724.00;;;;2080061;28;20219;-53
2024/01/08 04:29:36;;;;;;;2.80;2.00;;;;;18.80;101720.00;;;;2083853;28;20220;-52
2024/01/08 04:30:37;;;;;;;3.30;2.57;;;;;18.70;101724.00;;;;2092577;28;20365;-53
2024/01/08 04:31:37;;;;;;;3.53;2.20;;;;;18.70;101721.00;;;;2082623;28;20217;-52
2024/01/08 04:32:37;;;;;;;3.27;2.20;;;;;18.70;101726.00;;;;2076361;28;20302;-53
2024/01/08 04:33:38;;;;;;;3.03;2.20;;;;;18.70;101727.00;;;;2083663;28;20216;-52
2024/01/08 04:34:38;;;;;;;2.80;2.17;;;;;18.70;101727.00;;;;2085544;28;20325;-53
2024/01/08 04:35:39;;;;;;;3.23;2.17;;;;;18.70;101727.00;;;;2091766;28;20224;-52
2024/01/08 04:36:45;;;;;;;3.23;2.30;;;;;18.70;101730.00;;;;2090691;28;20463;-53
2024/01/08 04:37:45;;;;;;;3.13;2.20;;;;;18.70;101723.00;;;;2059934;28;20222;-52
2024/01/08 04:38:45;;;;;;;3.67;2.37;;;;;18.70;101732.00;;;;2081641;28;20212;-52
2024/01/08 04:39:46;;;;;;;3.07;2.13;;;;;18.70;101729.00;;;;2088984;28;20219;-53
2024/01/08 04:40:46;;;;;;;3.00;1.97;;;;;18.70;101723.00;;;;2085970;28;20209;-53
2024/01/08 04:41:46;;;;;;;2.87;2.10;;;;;18.70;101723.00;;;;2085720;28;20254;-53
2024/01/08 04:42:47;;;;;;;3.40;2.00;;;;;18.70;101726.00;;;;2075294;28;20213;-53
2024/01/08 04:43:47;;;;;;;3.93;1.97;;;;;18.70;101728.00;;;;2083692;28;20282;-52
2024/01/08 04:44:48;;;;;;;3.63;2.13;;;;;18.70;101730.00;;;;2079045;28;20209;-53
2024/01/08 04:45:48;;;;;;;2.60;1.80;;;;;18.70;101724.00;;;;2093252;28;20212;-53
2024/01/08 04:46:48;;;;;;;3.70;1.97;;;;;18.70;101729.00;;;;2079645;28;20212;-52
2024/01/08 04:47:49;;;;;;;2.70;2.10;;;;;18.70;101721.00;;;;2083482;28;20204;-53
2024/01/08 04:48:49;;;;;;;3.07;1.93;;;;;18.80;101733.00;;;;2076921;28;20207;-51
2024/01/08 04:49:49;;;;;;;3.00;2.20;;;;;18.70;101722.00;;;;2082154;28;20572;-52
2024/01/08 04:50:50;;;;;;;3.00;2.20;;;;;18.70;101727.00;;;;2082709;28;20207;-51
2024/01/08 04:51:50;;;;;;;2.93;1.83;;;;;18.70;101730.00;;;;2077423;28;20224;-53
2024/01/08 04:52:50;;;;;;;3.40;2.10;;;;;18.70;101727.00;;;;2075921;28;20247;-53
2024/01/08 04:53:52;;;;;;;2.70;1.80;;;;;18.70;101715.00;;;;2078694;28;20220;-53
2024/01/08 04:54:52;;;;;;;3.33;2.30;;;;;18.70;101716.00;;;;2086883;28;20212;-52
2024/01/08 04:55:52;;;;;;;3.73;2.73;;;;;18.70;101727.00;;;;2082377;28;20233;-52
2024/01/08 04:56:55;;;;;;;3.03;1.77;;;;;18.70;101721.00;;;;2085741;28;20208;-53